CA-0288 weather

CLOSED Polaris (Little Cornwallis Island) Airport
Nunavut, Canada

Public forecast

Using degrees Celsius for public forecast. Weather courtesy of forecast.io.

METAR (pilot weather report)

Closest report is Resolute Bay Airport, 50.3 nm (93.1 km) SE. Retrieved 2019/04/25 07:00 UTC (44 minutes ago):

CYRB 250700Z VRB05KT 15SM IC SKC M27/M30 A2993 RMK SLP147

TAF (pilot weather forecast)

Closest forecast is Resolute Bay Airport, 50.3 nm (93.1 km) SE. Retrieved 2019/04/25 06:42 UTC (1 hour ago):

TAF CYRB 250538Z 2506/2606 11006KT P6SM IC FEW030 FM251800 24008KT P6SM SCT100 RMK NXT FCST BY 251200Z